Time;durP1;ratioP1;P1;durP2;ratioP2;P2;SDS_P1;SDS_P2;PMS_P1;PMS_P2;Temp;Humidity;BMP_temperature;BMP_pressure;BME280_temperature;BME280_humidity;BME280_pressure;Samples;Min_cycle;Max_cycle;Signal;HPM_P1;HPM_P2
2022/05/21 00:00:51;;;;;;;1.05;1.00;;;;;;;;;;4937875;29;20051;-89
2022/05/21 00:03:18;;;;;;;3.60;0.98;;;;;;;;;;4987527;28;20104;-89
2022/05/21 00:05:46;;;;;;;4.88;1.10;;;;;;;;;;5053913;28;20048;-90
2022/05/21 00:08:14;;;;;;;2.22;0.80;;;;;;;;;;5035935;28;20049;-89
2022/05/21 00:10:41;;;;;;;3.05;1.20;;;;;;;;;;5053308;28;20135;-89
2022/05/21 00:13:08;;;;;;;1.95;1.20;;;;;;;;;;5054104;28;20059;-88
2022/05/21 00:15:36;;;;;;;5.68;1.27;;;;;;;;;;5043195;28;20112;-91
2022/05/21 00:18:04;;;;;;;18.63;1.90;;;;;;;;;;5060731;28;20052;-89
2022/05/21 00:20:49;;;;;;;3.92;1.45;;;;;;;;;;5035624;28;20044;-89
2022/05/21 00:23:19;;;;;;;3.97;1.00;;;;;;;;;;5036716;28;20110;-89
2022/05/21 00:25:47;;;;;;;1.98;1.17;;;;;;;;;;5036057;28;20135;-88
2022/05/21 00:28:15;;;;;;;2.22;1.08;;;;;;;;;;5035527;28;20553;-89
2022/05/21 00:30:43;;;;;;;0.80;0.80;;;;;;;;;;5035978;28;20053;-91
2022/05/21 00:33:10;;;;;;;1.20;0.90;;;;;;;;;;5035704;28;20057;-87
2022/05/21 00:35:37;;;;;;;1.75;0.70;;;;;;;;;;5035474;28;20135;-88
2022/05/21 00:38:04;;;;;;;2.17;0.57;;;;;;;;;;5035693;28;20113;-88
2022/05/21 00:40:31;;;;;;;0.90;0.90;;;;;;;;;;5035762;28;20049;-91
2022/05/21 00:42:59;;;;;;;3.78;0.70;;;;;;;;;;5035809;28;20059;-88
2022/05/21 00:45:26;;;;;;;2.50;0.80;;;;;;;;;;5035932;28;20128;-89
2022/05/21 00:47:53;;;;;;;1.08;0.80;;;;;;;;;;5035372;28;20055;-88
2022/05/21 00:50:22;;;;;;;1.00;1.00;;;;;;;;;;5035400;28;20041;-88
2022/05/21 00:52:50;;;;;;;1.40;0.85;;;;;;;;;;5035710;28;20132;-89
2022/05/21 00:55:24;;;;;;;8.07;0.80;;;;;;;;;;5035241;28;20052;-89
2022/05/21 01:00:52;;;;;;;4.43;0.82;;;;;;;;;;5052952;28;20501;-90
2022/05/21 01:03:19;;;;;;;0.70;0.70;;;;;;;;;;5035599;28;20057;-89
2022/05/21 01:05:47;;;;;;;1.27;0.73;;;;;;;;;;5034786;28;20056;-88
2022/05/21 01:08:14;;;;;;;2.05;0.90;;;;;;;;;;5035309;28;20136;-89
2022/05/21 01:10:44;;;;;;;4.03;1.08;;;;;;;;;;5035466;28;20055;-89
2022/05/21 01:13:14;;;;;;;2.92;0.70;;;;;;;;;;5038952;28;20140;-91
2022/05/21 01:15:43;;;;;;;1.15;0.98;;;;;;;;;;5039006;28;20063;-90
2022/05/21 01:18:11;;;;;;;5.63;1.00;;;;;;;;;;5038914;28;20144;-89
2022/05/21 01:20:44;;;;;;;0.88;0.88;;;;;;;;;;5038861;28;20103;-89
2022/05/21 01:23:12;;;;;;;4.07;1.00;;;;;;;;;;5038367;28;20413;-88
2022/05/21 01:25:40;;;;;;;0.70;0.70;;;;;;;;;;5038833;28;20049;-90
2022/05/21 01:28:12;;;;;;;3.70;1.02;;;;;;;;;;5038348;28;20278;-90
2022/05/21 01:30:47;;;;;;;2.55;0.82;;;;;;;;;;5038952;28;20059;-90
2022/05/21 01:33:16;;;;;;;1.05;0.90;;;;;;;;;;5046517;28;20048;-89
2022/05/21 01:35:44;;;;;;;1.25;0.82;;;;;;;;;;5048692;28;20136;-90
2022/05/21 01:38:15;;;;;;;0.98;0.82;;;;;;;;;;5056027;28;20489;-90
2022/05/21 01:40:42;;;;;;;25.23;2.50;;;;;;;;;;5056067;28;20095;-89
2022/05/21 01:45:55;;;;;;;4.22;1.10;;;;;;;;;;5056420;28;20120;-89
2022/05/21 01:48:24;;;;;;;2.55;1.10;;;;;;;;;;5055540;28;20049;-87
2022/05/21 01:50:52;;;;;;;2.72;0.90;;;;;;;;;;5055888;28;20472;-89
2022/05/21 01:53:20;;;;;;;2.28;0.77;;;;;;;;;;5055643;28;20044;-88
2022/05/21 01:55:47;;;;;;;0.90;0.70;;;;;;;;;;5037808;28;20049;-88
2022/05/21 01:58:15;;;;;;;1.52;0.65;;;;;;;;;;5055858;28;20048;-88
2022/05/21 02:00:43;;;;;;;0.85;0.85;;;;;;;;;;5055205;28;20041;-88
2022/05/21 02:03:14;;;;;;;0.60;0.60;;;;;;;;;;5055173;28;20088;-88
2022/05/21 02:05:44;;;;;;;3.47;0.80;;;;;;;;;;5055349;28;20076;-89
2022/05/21 02:08:13;;;;;;;1.02;0.60;;;;;;;;;;5055111;28;20135;-88
2022/05/21 02:10:41;;;;;;;0.70;0.70;;;;;;;;;;5055097;28;20048;-89
2022/05/21 02:13:13;;;;;;;0.73;0.73;;;;;;;;;;5055227;28;20051;-88
2022/05/21 02:15:40;;;;;;;1.58;0.70;;;;;;;;;;5037451;28;20132;-88
2022/05/21 02:18:07;;;;;;;1.48;0.50;;;;;;;;;;5054998;28;20133;-89
2022/05/21 02:20:34;;;;;;;1.38;0.90;;;;;;;;;;5054871;28;20055;-88
2022/05/21 02:23:01;;;;;;;1.48;0.60;;;;;;;;;;5036344;28;20150;-88
2022/05/21 02:25:28;;;;;;;2.70;0.90;;;;;;;;;;5054879;28;20053;-88
2022/05/21 02:27:55;;;;;;;0.70;0.60;;;;;;;;;;5054492;28;20476;-88
2022/05/21 02:30:23;;;;;;;2.60;1.10;;;;;;;;;;5054827;28;20433;-89
2022/05/21 02:32:50;;;;;;;1.10;0.70;;;;;;;;;;5036992;28;20158;-88
2022/05/21 02:35:17;;;;;;;1.55;0.80;;;;;;;;;;5037163;28;20132;-88
2022/05/21 02:40:30;;;;;;;2.28;0.77;;;;;;;;;;5054515;28;20049;-88
2022/05/21 02:42:57;;;;;;;1.05;1.00;;;;;;;;;;5036879;28;20063;-88
2022/05/21 02:45:26;;;;;;;6.28;0.80;;;;;;;;;;5036586;28;20068;-88
2022/05/21 02:47:53;;;;;;;3.58;0.88;;;;;;;;;;5036809;28;20084;-88
2022/05/21 02:50:22;;;;;;;0.90;0.70;;;;;;;;;;5041158;28;20049;-88
2022/05/21 02:52:50;;;;;;;1.23;1.10;;;;;;;;;;5043376;28;20115;-88
2022/05/21 02:55:17;;;;;;;0.82;0.80;;;;;;;;;;5053860;28;20091;-89
2022/05/21 02:57:45;;;;;;;1.75;0.88;;;;;;;;;;5036747;28;20110;-88
2022/05/21 03:00:12;;;;;;;3.08;0.82;;;;;;;;;;5054126;28;20416;-88
2022/05/21 03:02:39;;;;;;;2.05;0.80;;;;;;;;;;5054205;28;20048;-88
2022/05/21 03:05:07;;;;;;;2.72;0.60;;;;;;;;;;5053482;28;20049;-87
2022/05/21 03:07:38;;;;;;;1.00;0.65;;;;;;;;;;5036346;28;20053;-88
2022/05/21 03:10:21;;;;;;;2.30;0.90;;;;;;;;;;5053994;28;20143;-88
2022/05/21 03:12:48;;;;;;;0.57;0.57;;;;;;;;;;5036249;28;20124;-88
2022/05/21 03:15:16;;;;;;;0.90;0.65;;;;;;;;;;5036335;28;20107;-88
2022/05/21 03:17:44;;;;;;;0.90;0.80;;;;;;;;;;5035999;28;20416;-88
2022/05/21 03:20:13;;;;;;;1.23;0.80;;;;;;;;;;5036277;28;20106;-88
2022/05/21 03:22:41;;;;;;;6.28;1.15;;;;;;;;;;5036501;28;20053;-88
2022/05/21 03:25:08;;;;;;;0.90;0.85;;;;;;;;;;5036119;28;20055;-88
2022/05/21 03:27:35;;;;;;;1.10;1.10;;;;;;;;;;5035895;28;20135;-89
2022/05/21 03:30:07;;;;;;;0.93;0.88;;;;;;;;;;5035883;28;20092;-88
2022/05/21 03:32:35;;;;;;;0.90;0.82;;;;;;;;;;5053449;28;20124;-88
2022/05/21 03:35:03;;;;;;;0.80;0.80;;;;;;;;;;5053404;28;20057;-88
2022/05/21 03:37:30;;;;;;;3.55;1.42;;;;;;;;;;5035978;28;20144;-88
2022/05/21 03:39:57;;;;;;;0.88;0.88;;;;;;;;;;5035767;28;20140;-88
2022/05/21 03:42:25;;;;;;;2.10;1.20;;;;;;;;;;5035933;28;20128;-88
2022/05/21 03:44:52;;;;;;;1.90;0.80;;;;;;;;;;5035675;28;20053;-89
2022/05/21 03:47:19;;;;;;;2.15;1.40;;;;;;;;;;5035825;28;20084;-90
2022/05/21 03:49:46;;;;;;;2.55;1.55;;;;;;;;;;5053156;28;20070;-88
2022/05/21 03:52:13;;;;;;;1.27;1.15;;;;;;;;;;5036042;28;20119;-89
2022/05/21 03:54:41;;;;;;;2.83;1.20;;;;;;;;;;5035756;28;20053;-88
2022/05/21 03:57:10;;;;;;;3.72;1.33;;;;;;;;;;5053233;28;20084;-88
2022/05/21 03:59:38;;;;;;;1.70;1.30;;;;;;;;;;5053578;28;20087;-88
2022/05/21 04:02:05;;;;;;;1.38;1.10;;;;;;;;;;5036068;28;20102;-88
2022/05/21 04:04:33;;;;;;;6.20;2.28;;;;;;;;;;5036030;28;20127;-88
2022/05/21 04:07:00;;;;;;;1.23;1.10;;;;;;;;;;5036124;28;20074;-88
2022/05/21 04:09:28;;;;;;;3.38;1.95;;;;;;;;;;5063982;28;20080;-87
2022/05/21 04:11:56;;;;;;;3.10;1.98;;;;;;;;;;5035396;28;20579;-88
2022/05/21 04:14:30;;;;;;;3.63;1.95;;;;;;;;;;5053167;28;20139;-88
2022/05/21 04:16:58;;;;;;;1.70;1.60;;;;;;;;;;5053208;28;20051;-88
2022/05/21 04:19:26;;;;;;;1.85;1.60;;;;;;;;;;5035726;28;20049;-88
2022/05/21 04:21:53;;;;;;;5.55;1.50;;;;;;;;;;5035622;28;20041;-88
2022/05/21 04:24:20;;;;;;;4.50;1.80;;;;;;;;;;5053027;28;20140;-92
2022/05/21 04:26:47;;;;;;;4.80;1.77;;;;;;;;;;5035610;28;20041;-89
2022/05/21 04:29:15;;;;;;;2.42;1.60;;;;;;;;;;5035132;28;20564;-88
2022/05/21 04:31:43;;;;;;;1.77;1.10;;;;;;;;;;5035306;28;20128;-88
2022/05/21 04:34:10;;;;;;;4.13;1.30;;;;;;;;;;5035195;28;20045;-87
2022/05/21 04:36:37;;;;;;;1.63;1.52;;;;;;;;;;5035525;28;20136;-88
2022/05/21 04:39:05;;;;;;;3.17;1.67;;;;;;;;;;5035416;28;20108;-88
2022/05/21 04:41:33;;;;;;;4.03;1.60;;;;;;;;;;5052898;28;20055;-88
2022/05/21 04:44:02;;;;;;;2.10;1.70;;;;;;;;;;5052719;28;20132;-88
2022/05/21 04:46:30;;;;;;;2.15;1.92;;;;;;;;;;5054458;28;20040;-87
2022/05/21 04:48:57;;;;;;;3.17;2.03;;;;;;;;;;5056408;28;20136;-88
2022/05/21 04:51:32;;;;;;;2.53;1.83;;;;;;;;;;5040122;28;20053;-88
2022/05/21 04:54:00;;;;;;;6.50;2.28;;;;;;;;;;5038598;28;20132;-87
2022/05/21 04:56:27;;;;;;;3.95;1.80;;;;;;;;;;5056312;28;20106;-87
2022/05/21 04:59:10;;;;;;;6.07;1.80;;;;;;;;;;5041162;28;20052;-88
2022/05/21 05:01:38;;;;;;;7.85;1.67;;;;;;;;;;5056463;28;20083;-88
2022/05/21 05:04:06;;;;;;;1.90;1.80;;;;;;;;;;5056233;28;20087;-88
2022/05/21 05:06:35;;;;;;;2.78;1.95;;;;;;;;;;5038344;28;20480;-87
2022/05/21 05:09:02;;;;;;;1.95;1.85;;;;;;;;;;5056059;28;20053;-87
2022/05/21 05:11:29;;;;;;;1.85;1.75;;;;;;;;;;5038936;28;20051;-87
2022/05/21 05:13:57;;;;;;;3.83;1.98;;;;;;;;;;5056175;28;20053;-87
2022/05/21 05:16:24;;;;;;;2.97;1.60;;;;;;;;;;5055961;28;20041;-86
2022/05/21 05:18:52;;;;;;;1.75;1.38;;;;;;;;;;5038668;28;20147;-86
2022/05/21 05:21:20;;;;;;;2.40;1.70;;;;;;;;;;5040923;28;20119;-88
2022/05/21 05:23:47;;;;;;;3.22;1.52;;;;;;;;;;5047115;28;20124;-87
2022/05/21 05:26:15;;;;;;;2.42;1.50;;;;;;;;;;5069324;28;20049;-88
2022/05/21 05:28:42;;;;;;;4.80;1.85;;;;;;;;;;5038103;28;20056;-88
2022/05/21 05:31:09;;;;;;;2.97;1.70;;;;;;;;;;5037986;28;20136;-88
2022/05/21 05:33:36;;;;;;;2.97;1.50;;;;;;;;;;5038038;28;20176;-87
2022/05/21 05:36:04;;;;;;;1.70;1.60;;;;;;;;;;5038557;28;20103;-90
2022/05/21 05:38:31;;;;;;;4.43;1.77;;;;;;;;;;5038319;28;20444;-89
2022/05/21 05:40:58;;;;;;;3.25;1.25;;;;;;;;;;5055572;28;20131;-88
2022/05/21 05:43:26;;;;;;;3.42;1.10;;;;;;;;;;5055950;28;20055;-87
2022/05/21 05:45:59;;;;;;;1.20;1.10;;;;;;;;;;5038073;28;20052;-88
2022/05/21 05:48:28;;;;;;;1.40;1.08;;;;;;;;;;5055789;28;20049;-88
2022/05/21 05:50:56;;;;;;;4.55;1.30;;;;;;;;;;5039378;28;20136;-92
2022/05/21 05:53:24;;;;;;;1.65;1.15;;;;;;;;;;5038198;28;20049;-87
2022/05/21 05:55:51;;;;;;;1.10;1.00;;;;;;;;;;5037543;28;20136;-87
2022/05/21 06:01:06;;;;;;;2.65;0.77;;;;;;;;;;5055398;28;20076;-88
2022/05/21 06:03:34;;;;;;;3.53;0.90;;;;;;;;;;5037999;28;20139;-87
2022/05/21 06:06:02;;;;;;;1.75;0.70;;;;;;;;;;5054699;28;20055;-87
2022/05/21 06:08:29;;;;;;;1.83;0.50;;;;;;;;;;5054821;28;20044;-87
2022/05/21 06:10:56;;;;;;;1.92;0.70;;;;;;;;;;5055236;28;20135;-87
2022/05/21 06:13:23;;;;;;;4.88;1.00;;;;;;;;;;5037571;28;20040;-88
2022/05/21 06:15:50;;;;;;;2.97;0.55;;;;;;;;;;5037146;28;20489;-87
2022/05/21 06:18:20;;;;;;;3.83;0.60;;;;;;;;;;5037656;28;20088;-87
2022/05/21 06:20:48;;;;;;;0.70;0.70;;;;;;;;;;5054882;28;20049;-89
2022/05/21 06:23:16;;;;;;;1.30;0.60;;;;;;;;;;5037255;28;20045;-87
2022/05/21 06:25:43;;;;;;;0.63;0.63;;;;;;;;;;5036742;28;20045;-87
2022/05/21 06:28:10;;;;;;;1.55;0.77;;;;;;;;;;5037406;28;20132;-87
2022/05/21 06:30:39;;;;;;;4.63;0.82;;;;;;;;;;5037370;28;20048;-87
2022/05/21 06:33:12;;;;;;;4.20;1.13;;;;;;;;;;5036950;28;20424;-86
2022/05/21 06:35:40;;;;;;;2.80;0.68;;;;;;;;;;5036515;28;20049;-93
2022/05/21 06:38:07;;;;;;;0.82;0.82;;;;;;;;;;5036625;28;20132;-86
2022/05/21 06:40:35;;;;;;;4.95;0.80;;;;;;;;;;5041009;28;20131;-93
2022/05/21 06:43:02;;;;;;;3.22;0.70;;;;;;;;;;5059204;28;20092;-88
2022/05/21 06:45:30;;;;;;;2.83;0.82;;;;;;;;;;5036437;28;20474;-87
2022/05/21 06:48:01;;;;;;;6.55;0.80;;;;;;;;;;5037324;28;20071;-87
2022/05/21 06:50:29;;;;;;;0.80;0.70;;;;;;;;;;5054586;28;20494;-90
2022/05/21 06:52:56;;;;;;;2.00;0.73;;;;;;;;;;5037779;28;20349;-87
2022/05/21 06:55:24;;;;;;;2.78;0.70;;;;;;;;;;5036683;28;20135;-86
2022/05/21 06:57:51;;;;;;;2.83;0.90;;;;;;;;;;5036660;28;20129;-87
2022/05/21 07:00:21;;;;;;;0.68;0.50;;;;;;;;;;5036223;28;20458;-86
2022/05/21 07:02:49;;;;;;;1.90;0.60;;;;;;;;;;5036423;28;20136;-87
2022/05/21 07:08:05;;;;;;;2.08;0.77;;;;;;;;;;5054481;28;20404;-86
2022/05/21 07:10:33;;;;;;;4.95;0.63;;;;;;;;;;5035754;28;20048;-86
2022/05/21 07:13:01;;;;;;;0.80;0.30;;;;;;;;;;5036163;28;20068;-89
2022/05/21 07:15:28;;;;;;;4.00;0.85;;;;;;;;;;5034687;28;20145;-89
2022/05/21 07:18:00;;;;;;;1.65;0.63;;;;;;;;;;5037052;28;20052;-89
2022/05/21 07:20:28;;;;;;;2.42;0.60;;;;;;;;;;5036137;28;20049;-86
2022/05/21 07:22:55;;;;;;;1.52;0.60;;;;;;;;;;5036148;28;20132;-87
2022/05/21 07:25:24;;;;;;;1.95;0.40;;;;;;;;;;5035993;28;20045;-87
2022/05/21 07:27:57;;;;;;;1.70;0.60;;;;;;;;;;5036820;28;20049;-87
2022/05/21 07:30:25;;;;;;;0.70;0.50;;;;;;;;;;5053452;28;20140;-88
2022/05/21 07:32:55;;;;;;;0.70;0.50;;;;;;;;;;5035722;28;20128;-88
2022/05/21 07:35:23;;;;;;;2.47;0.82;;;;;;;;;;5036244;28;20119;-88
2022/05/21 07:37:51;;;;;;;2.03;0.57;;;;;;;;;;5053673;28;20511;-85
2022/05/21 07:40:20;;;;;;;0.40;0.40;;;;;;;;;;5035763;28;20056;-86
2022/05/21 07:42:48;;;;;;;0.50;0.47;;;;;;;;;;5035632;28;20049;-88
2022/05/21 07:45:16;;;;;;;1.80;0.80;;;;;;;;;;5035375;28;20057;-83
2022/05/21 07:47:43;;;;;;;0.70;0.40;;;;;;;;;;5035750;28;20584;-83
2022/05/21 07:50:11;;;;;;;0.98;0.30;;;;;;;;;;5035583;28;20053;-88
2022/05/21 07:52:38;;;;;;;2.17;0.60;;;;;;;;;;5035976;28;20123;-86
2022/05/21 07:55:07;;;;;;;0.75;0.40;;;;;;;;;;5035471;28;20083;-89
2022/05/21 07:57:34;;;;;;;0.40;0.40;;;;;;;;;;5037443;28;20139;-88
2022/05/21 08:00:03;;;;;;;0.65;0.65;;;;;;;;;;5039872;28;20471;-87
2022/05/21 08:02:30;;;;;;;5.53;0.82;;;;;;;;;;5035683;28;20103;-87
2022/05/21 08:04:57;;;;;;;4.50;0.63;;;;;;;;;;5052699;28;20084;-86
2022/05/21 08:07:25;;;;;;;1.25;0.70;;;;;;;;;;5035673;28;20143;-86
2022/05/21 08:09:52;;;;;;;1.67;1.08;;;;;;;;;;5052968;28;20084;-86
2022/05/21 08:12:20;;;;;;;2.10;0.77;;;;;;;;;;5035476;28;20161;-86
2022/05/21 08:14:47;;;;;;;1.08;0.70;;;;;;;;;;5052765;28;20472;-87
2022/05/21 08:17:14;;;;;;;3.55;1.00;;;;;;;;;;5035530;28;20442;-85
2022/05/21 08:19:43;;;;;;;5.28;1.00;;;;;;;;;;5052722;28;20505;-87
2022/05/21 08:27:42;;;;;;;1.38;0.70;;;;;;;;;;5052849;28;20128;-87
2022/05/21 08:30:09;;;;;;;0.60;0.60;;;;;;;;;;5035021;28;20131;-86
2022/05/21 08:32:37;;;;;;;1.90;0.73;;;;;;;;;;5034802;28;20052;-86
2022/05/21 08:35:04;;;;;;;1.60;0.52;;;;;;;;;;5035864;28;20135;-89
2022/05/21 08:37:33;;;;;;;2.63;0.88;;;;;;;;;;5053346;28;20090;-89
2022/05/21 08:40:01;;;;;;;1.42;0.85;;;;;;;;;;5035381;28;20489;-86
2022/05/21 08:42:35;;;;;;;1.08;0.60;;;;;;;;;;5034934;28;20051;-86
2022/05/21 08:45:11;;;;;;;0.57;0.57;;;;;;;;;;5035025;28;20256;-85
2022/05/21 08:47:39;;;;;;;3.58;0.80;;;;;;;;;;5052675;28;20373;-87
2022/05/21 08:50:10;;;;;;;4.60;1.05;;;;;;;;;;5052338;28;20591;-86
2022/05/21 08:52:38;;;;;;;6.28;0.77;;;;;;;;;;5035075;28;20053;-87
2022/05/21 08:55:06;;;;;;;3.08;0.90;;;;;;;;;;5035216;28;20071;-88
2022/05/21 08:57:51;;;;;;;1.65;0.80;;;;;;;;;;5034531;28;20067;-86
2022/05/21 09:00:23;;;;;;;2.17;0.75;;;;;;;;;;5035854;28;20524;-88
2022/05/21 09:02:52;;;;;;;0.80;0.80;;;;;;;;;;5035882;28;20051;-87
2022/05/21 09:05:20;;;;;;;1.35;0.93;;;;;;;;;;5035853;28;20068;-86
2022/05/21 09:08:02;;;;;;;1.33;0.80;;;;;;;;;;5034443;28;20041;-89
2022/05/21 09:10:39;;;;;;;1.23;0.90;;;;;;;;;;5051973;28;20049;-86
2022/05/21 09:13:15;;;;;;;3.63;0.80;;;;;;;;;;5035693;28;20112;-86
2022/05/21 09:18:31;;;;;;;1.48;0.88;;;;;;;;;;5052525;28;20047;-86
2022/05/21 09:21:05;;;;;;;2.45;0.90;;;;;;;;;;5052047;28;20096;-86
2022/05/21 09:23:58;;;;;;;2.88;0.73;;;;;;;;;;5034570;28;20103;-85
2022/05/21 09:26:27;;;;;;;1.48;0.90;;;;;;;;;;5030710;28;20048;-86
2022/05/21 09:29:11;;;;;;;3.50;1.00;;;;;;;;;;5034980;28;20053;-85
2022/05/21 09:31:38;;;;;;;4.18;0.70;;;;;;;;;;5034395;28;20059;-88
2022/05/21 09:34:32;;;;;;;3.47;0.60;;;;;;;;;;5038766;28;20041;-85
2022/05/21 09:37:01;;;;;;;0.95;0.50;;;;;;;;;;5034232;28;20438;-86
2022/05/21 09:39:30;;;;;;;2.05;0.63;;;;;;;;;;5055519;28;20056;-85
2022/05/21 09:45:22;;;;;;;1.10;0.55;;;;;;;;;;5055773;28;20092;-84
2022/05/21 09:45:25;;;;;;;4.15;0.80;;;;;;;;;;5055849;28;20128;-89
2022/05/21 09:47:53;;;;;;;3.30;0.60;;;;;;;;;;5038043;28;20056;-84
2022/05/21 09:50:22;;;;;;;1.23;0.50;;;;;;;;;;5055889;28;20053;-93
2022/05/21 09:52:49;;;;;;;2.42;0.43;;;;;;;;;;5055320;28;20127;-85
2022/05/21 09:55:22;;;;;;;8.40;0.95;;;;;;;;;;5038841;28;20072;-88
2022/05/21 09:57:55;;;;;;;0.95;0.50;;;;;;;;;;5039062;28;20052;-90
2022/05/21 10:00:24;;;;;;;5.03;0.80;;;;;;;;;;5055413;28;20049;-89
2022/05/21 10:02:53;;;;;;;2.10;0.47;;;;;;;;;;5037623;28;20127;-89
2022/05/21 10:05:32;;;;;;;1.77;0.60;;;;;;;;;;5037767;28;20047;-85
2022/05/21 10:11:14;;;;;;;2.38;0.40;;;;;;;;;;5054848;28;20060;-88
2022/05/21 10:13:48;;;;;;;0.70;0.40;;;;;;;;;;5055559;28;20052;-91
2022/05/21 10:16:27;;;;;;;1.33;0.40;;;;;;;;;;5037007;28;20513;-86
2022/05/21 10:19:04;;;;;;;0.80;0.50;;;;;;;;;;5055577;28;20493;-92
2022/05/21 10:21:50;;;;;;;0.80;0.45;;;;;;;;;;5037050;28;20142;-84
2022/05/21 10:24:19;;;;;;;2.45;0.57;;;;;;;;;;5055535;28;20497;-93
2022/05/21 10:26:46;;;;;;;4.90;0.60;;;;;;;;;;5036935;28;20147;-87
2022/05/21 10:29:32;;;;;;;4.03;0.43;;;;;;;;;;5037381;28;20508;-86
2022/05/21 10:32:05;;;;;;;4.55;0.60;;;;;;;;;;5039242;28;20120;-86
2022/05/21 10:34:44;;;;;;;1.42;0.40;;;;;;;;;;5058921;28;20113;-86
2022/05/21 10:37:36;;;;;;;1.40;0.40;;;;;;;;;;5036932;28;20468;-86
2022/05/21 10:40:07;;;;;;;1.55;0.45;;;;;;;;;;5037018;28;20452;-86
2022/05/21 10:42:51;;;;;;;0.65;0.40;;;;;;;;;;5036990;28;20079;-87
2022/05/21 10:45:40;;;;;;;1.20;0.30;;;;;;;;;;5053741;28;20118;-88
2022/05/21 10:48:17;;;;;;;3.30;0.40;;;;;;;;;;5037123;28;20497;-90
2022/05/21 10:50:51;;;;;;;1.92;0.88;;;;;;;;;;5037630;28;20459;-89
2022/05/21 10:53:31;;;;;;;1.85;0.50;;;;;;;;;;5037808;28;20071;-86
2022/05/21 10:56:25;;;;;;;0.50;0.30;;;;;;;;;;5054645;28;20223;-87
2022/05/21 10:59:06;;;;;;;1.77;0.55;;;;;;;;;;5054009;28;20489;-85
2022/05/21 11:01:36;;;;;;;2.95;0.60;;;;;;;;;;5054289;28;20128;-87
2022/05/21 11:04:24;;;;;;;2.78;0.95;;;;;;;;;;5036702;28;20432;-84
2022/05/21 11:06:51;;;;;;;5.05;0.82;;;;;;;;;;5036390;28;20123;-87
2022/05/21 11:09:38;;;;;;;1.05;0.35;;;;;;;;;;5053385;28;20084;-86
2022/05/21 11:12:19;;;;;;;2.13;0.47;;;;;;;;;;5036877;28;20045;-86
2022/05/21 11:14:49;;;;;;;1.73;0.40;;;;;;;;;;5036426;28;20386;-87
2022/05/21 11:17:29;;;;;;;1.50;0.22;;;;;;;;;;5036838;28;20049;-87
2022/05/21 11:20:01;;;;;;;0.95;0.32;;;;;;;;;;5036419;28;20045;-89
2022/05/21 11:22:33;;;;;;;2.83;0.45;;;;;;;;;;5053974;28;20493;-86
2022/05/21 11:25:03;;;;;;;1.85;0.40;;;;;;;;;;5053492;28;20049;-88
2022/05/21 11:27:37;;;;;;;4.45;1.27;;;;;;;;;;5034215;28;20059;-86
2022/05/21 11:30:12;;;;;;;1.80;0.60;;;;;;;;;;5036668;28;20076;-85
2022/05/21 11:38:24;;;;;;;1.80;0.40;;;;;;;;;;5053533;28;20484;-85
2022/05/21 11:40:51;;;;;;;1.00;0.50;;;;;;;;;;5036139;28;20143;-86
2022/05/21 11:43:19;;;;;;;2.50;0.43;;;;;;;;;;5035785;28;20136;-86
2022/05/21 11:46:09;;;;;;;2.13;0.50;;;;;;;;;;5053250;28;20143;-86
2022/05/21 11:48:36;;;;;;;2.35;0.60;;;;;;;;;;5036165;28;20056;-86
2022/05/21 11:51:22;;;;;;;1.33;0.32;;;;;;;;;;5045483;28;20136;-87
2022/05/21 11:53:49;;;;;;;0.77;0.30;;;;;;;;;;5035423;28;20369;-87
2022/05/21 11:56:16;;;;;;;1.67;0.50;;;;;;;;;;5035047;28;20076;-89
2022/05/21 11:58:58;;;;;;;2.25;0.50;;;;;;;;;;5052997;28;20073;-85
2022/05/21 12:01:40;;;;;;;2.25;0.30;;;;;;;;;;5052899;28;20144;-85
2022/05/21 12:04:08;;;;;;;3.08;0.57;;;;;;;;;;5035806;28;20507;-85
2022/05/21 12:06:39;;;;;;;0.65;0.25;;;;;;;;;;5035502;28;20136;-91
2022/05/21 12:09:08;;;;;;;2.15;0.50;;;;;;;;;;5035913;28;20080;-86
2022/05/21 12:11:40;;;;;;;2.75;0.60;;;;;;;;;;5053040;28;20135;-87
2022/05/21 12:14:21;;;;;;;1.77;0.43;;;;;;;;;;5035631;28;20478;-86
2022/05/21 12:16:51;;;;;;;2.35;0.50;;;;;;;;;;5035472;28;20140;-88
2022/05/21 12:19:37;;;;;;;4.35;0.77;;;;;;;;;;5053066;28;20088;-86
2022/05/21 12:22:05;;;;;;;4.32;0.55;;;;;;;;;;5052833;28;20551;-86
2022/05/21 12:24:34;;;;;;;0.73;0.30;;;;;;;;;;5034895;28;20159;-85
2022/05/21 12:27:02;;;;;;;2.10;0.60;;;;;;;;;;5035290;28;20048;-86
2022/05/21 12:29:31;;;;;;;3.42;0.60;;;;;;;;;;5052896;28;20424;-86
2022/05/21 12:32:00;;;;;;;2.40;0.60;;;;;;;;;;5035308;28;20096;-86
2022/05/21 12:34:27;;;;;;;3.58;0.65;;;;;;;;;;5035027;28;20473;-86
2022/05/21 12:36:57;;;;;;;2.03;0.50;;;;;;;;;;5052603;28;20206;-88
2022/05/21 12:39:32;;;;;;;0.82;0.52;;;;;;;;;;5053032;28;20505;-87
2022/05/21 12:42:06;;;;;;;0.52;0.40;;;;;;;;;;5052577;28;20095;-88
2022/05/21 12:44:38;;;;;;;2.47;0.43;;;;;;;;;;5035352;28;20490;-86
2022/05/21 12:47:06;;;;;;;2.50;0.50;;;;;;;;;;5052364;28;20040;-83
2022/05/21 12:49:33;;;;;;;1.65;0.60;;;;;;;;;;5052306;28;20045;-85
2022/05/21 12:52:02;;;;;;;2.95;0.70;;;;;;;;;;5034879;28;20072;-86
2022/05/21 12:54:29;;;;;;;1.90;0.60;;;;;;;;;;5034966;28;20494;-87
2022/05/21 12:56:59;;;;;;;1.60;0.52;;;;;;;;;;5034995;28;20057;-88
2022/05/21 12:59:27;;;;;;;3.78;0.60;;;;;;;;;;5035016;28;20127;-89
2022/05/21 13:01:58;;;;;;;3.92;0.47;;;;;;;;;;5035355;28;20056;-85
2022/05/21 13:04:31;;;;;;;1.80;0.63;;;;;;;;;;5052667;28;20127;-86
2022/05/21 13:07:04;;;;;;;5.57;1.42;;;;;;;;;;5057517;28;20107;-87
2022/05/21 13:09:36;;;;;;;3.08;0.65;;;;;;;;;;5042604;28;20464;-87
2022/05/21 13:12:05;;;;;;;2.33;0.50;;;;;;;;;;5038616;28;20044;-87
2022/05/21 13:14:37;;;;;;;1.40;0.50;;;;;;;;;;5038266;28;20477;-87
2022/05/21 13:17:10;;;;;;;2.08;0.60;;;;;;;;;;5039301;28;20106;-88
2022/05/21 13:19:44;;;;;;;3.13;0.60;;;;;;;;;;5039078;28;20092;-85
2022/05/21 13:22:26;;;;;;;7.85;1.00;;;;;;;;;;5038557;28;20041;-89
2022/05/21 13:24:57;;;;;;;0.55;0.30;;;;;;;;;;5039068;28;20049;-91
2022/05/21 13:27:24;;;;;;;1.35;0.52;;;;;;;;;;5056250;28;20136;-86
2022/05/21 13:29:52;;;;;;;1.17;0.50;;;;;;;;;;5037848;28;20137;-87
2022/05/21 13:32:23;;;;;;;0.65;0.60;;;;;;;;;;5037961;28;20087;-86
2022/05/21 13:34:50;;;;;;;4.13;0.57;;;;;;;;;;5038076;28;20077;-91
2022/05/21 13:37:17;;;;;;;1.55;0.68;;;;;;;;;;5038421;28;20084;-87
2022/05/21 13:39:55;;;;;;;0.57;0.45;;;;;;;;;;5038211;28;20056;-87
2022/05/21 13:42:22;;;;;;;2.05;0.73;;;;;;;;;;5055869;28;20045;-90
2022/05/21 13:44:50;;;;;;;0.93;0.52;;;;;;;;;;5055324;28;20503;-92
2022/05/21 13:47:30;;;;;;;1.70;0.70;;;;;;;;;;5038598;28;20048;-86
2022/05/21 13:49:59;;;;;;;2.97;0.60;;;;;;;;;;5037661;28;20501;-87
2022/05/21 13:52:28;;;;;;;0.88;0.60;;;;;;;;;;5038590;28;20136;-86
2022/05/21 13:54:55;;;;;;;4.13;0.93;;;;;;;;;;5037430;28;20501;-88
2022/05/21 13:57:31;;;;;;;2.47;0.80;;;;;;;;;;5038675;28;20513;-88
2022/05/21 14:00:00;;;;;;;6.43;1.00;;;;;;;;;;5038516;28;20087;-87
2022/05/21 14:02:34;;;;;;;2.85;0.77;;;;;;;;;;5038084;28;20053;-87
2022/05/21 14:05:19;;;;;;;3.58;0.75;;;;;;;;;;5055483;28;20063;-87
2022/05/21 14:07:51;;;;;;;1.45;0.60;;;;;;;;;;5055217;28;20152;-87
2022/05/21 14:10:29;;;;;;;3.20;0.80;;;;;;;;;;5037835;28;20076;-86
2022/05/21 14:12:57;;;;;;;1.17;0.70;;;;;;;;;;5038063;28;20118;-86
2022/05/21 14:15:45;;;;;;;3.15;0.70;;;;;;;;;;5038477;28;20126;-89
2022/05/21 14:18:26;;;;;;;1.27;0.65;;;;;;;;;;5037694;28;20087;-89
2022/05/21 14:20:57;;;;;;;1.60;0.63;;;;;;;;;;5036827;28;20049;-86
2022/05/21 14:23:35;;;;;;;0.35;0.30;;;;;;;;;;5056170;28;20084;-87
2022/05/21 14:26:31;;;;;;;3.25;0.70;;;;;;;;;;5049542;28;20049;-86
2022/05/21 14:29:00;;;;;;;1.70;0.60;;;;;;;;;;5037467;28;20084;-87
2022/05/21 14:31:35;;;;;;;1.17;0.60;;;;;;;;;;5036576;28;20491;-87
2022/05/21 14:34:05;;;;;;;1.25;0.73;;;;;;;;;;5037285;28;20136;-85
2022/05/21 14:36:38;;;;;;;1.38;0.68;;;;;;;;;;5037131;28;20091;-90
2022/05/21 14:39:05;;;;;;;3.40;0.70;;;;;;;;;;5037227;28;20418;-86
2022/05/21 14:41:36;;;;;;;1.13;0.52;;;;;;;;;;5036799;28;20084;-91
2022/05/21 14:44:06;;;;;;;2.33;0.73;;;;;;;;;;5036669;28;20124;-86
2022/05/21 14:49:19;;;;;;;4.07;1.08;;;;;;;;;;5054509;28;20089;-86
2022/05/21 14:54:35;;;;;;;2.70;0.98;;;;;;;;;;5054254;28;20051;-89
2022/05/21 14:57:03;;;;;;;1.58;0.80;;;;;;;;;;5061296;28;20056;-89
2022/05/21 14:59:30;;;;;;;1.85;0.95;;;;;;;;;;5056546;28;20131;-86
2022/05/21 15:01:57;;;;;;;1.05;0.55;;;;;;;;;;5056758;28;20088;-90
2022/05/21 15:04:24;;;;;;;2.05;0.82;;;;;;;;;;5056553;28;20076;-88
2022/05/21 15:06:52;;;;;;;2.80;0.75;;;;;;;;;;5056134;28;20408;-86
2022/05/21 15:09:19;;;;;;;1.20;0.60;;;;;;;;;;5073892;28;20091;-88
2022/05/21 15:11:49;;;;;;;4.95;0.73;;;;;;;;;;5073751;28;20564;-93
2022/05/21 15:14:16;;;;;;;2.35;0.73;;;;;;;;;;5056446;28;20049;-87
2022/05/21 15:16:44;;;;;;;1.15;1.00;;;;;;;;;;5073838;28;20090;-87
2022/05/21 15:19:13;;;;;;;1.25;0.68;;;;;;;;;;5056905;28;20045;-88
2022/05/21 15:21:42;;;;;;;1.48;0.50;;;;;;;;;;5055966;28;20056;-87
2022/05/21 15:24:09;;;;;;;1.75;0.68;;;;;;;;;;5056097;28;20050;-86
2022/05/21 15:26:37;;;;;;;1.00;0.55;;;;;;;;;;5073540;28;20044;-87
2022/05/21 15:29:04;;;;;;;0.80;0.52;;;;;;;;;;5066019;28;20131;-88
2022/05/21 15:31:32;;;;;;;2.05;0.70;;;;;;;;;;5055623;28;20143;-91
2022/05/21 15:34:00;;;;;;;4.28;0.70;;;;;;;;;;5055653;28;20116;-84
2022/05/21 15:36:28;;;;;;;2.08;0.73;;;;;;;;;;5073457;28;20497;-86
2022/05/21 15:38:55;;;;;;;3.95;1.10;;;;;;;;;;5055563;28;20063;-87